Terminal Aerodrome Forecast
Issued by NWS

Home | Current Version | Previous Version | Text Only | Print | Product List | Glossary On
Versions: 1 2 3 4 5 6 7 8 9 10 11 12 13 14 15 16 17
000
FTUS44 KSJT 312000 AAB
TAFSOA
TAF AMD
KSOA 312048Z 3121/0118 17010KT P6SM BKN008
     FM011500 24005KT P6SM BKN012
     FM011700 25007KT P6SM SCT025=

USA.gov is the U.S. government's official web portal to all federal, state and local government web resources and services.